sensor_id;sensor_type;location;lat;lon;timestamp;P1;durP1;ratioP1;P2;durP2;ratioP2
70997;SDS011;58663;52.040;4.634;2022-07-29T00:00:10;1.77;;;1.17;;
70997;SDS011;58663;52.040;4.634;2022-07-29T00:02:37;3.25;;;1.17;;
70997;SDS011;58663;52.040;4.634;2022-07-29T00:05:03;2.42;;;1.10;;
70997;SDS011;58663;52.040;4.634;2022-07-29T00:07:29;2.92;;;1.10;;
70997;SDS011;58663;52.040;4.634;2022-07-29T00:09:55;1.48;;;1.20;;
70997;SDS011;58663;52.040;4.634;2022-07-29T00:12:21;2.47;;;1.40;;
70997;SDS011;58663;52.040;4.634;2022-07-29T00:14:48;2.15;;;1.25;;
70997;SDS011;58663;52.040;4.634;2022-07-29T00:17:14;2.75;;;1.40;;
70997;SDS011;58663;52.040;4.634;2022-07-29T00:19:39;3.65;;;1.50;;
70997;SDS011;58663;52.040;4.634;2022-07-29T00:22:05;2.05;;;1.25;;
70997;SDS011;58663;52.040;4.634;2022-07-29T00:24:30;2.30;;;1.20;;
70997;SDS011;58663;52.040;4.634;2022-07-29T00:26:56;2.45;;;1.20;;
70997;SDS011;58663;52.040;4.634;2022-07-29T00:29:21;4.35;;;2.35;;
70997;SDS011;58663;52.040;4.634;2022-07-29T00:31:47;1.75;;;1.30;;
70997;SDS011;58663;52.040;4.634;2022-07-29T00:34:12;2.05;;;1.00;;
70997;SDS011;58663;52.040;4.634;2022-07-29T00:36:56;2.05;;;1.00;;
70997;SDS011;58663;52.040;4.634;2022-07-29T00:39:22;3.05;;;1.23;;
70997;SDS011;58663;52.040;4.634;2022-07-29T00:41:48;4.25;;;1.40;;
70997;SDS011;58663;52.040;4.634;2022-07-29T00:44:13;1.42;;;1.10;;
70997;SDS011;58663;52.040;4.634;2022-07-29T00:46:39;2.40;;;1.40;;
70997;SDS011;58663;52.040;4.634;2022-07-29T00:49:04;2.20;;;1.30;;
70997;SDS011;58663;52.040;4.634;2022-07-29T00:51:32;3.00;;;1.15;;
70997;SDS011;58663;52.040;4.634;2022-07-29T00:53:57;2.67;;;1.20;;
70997;SDS011;58663;52.040;4.634;2022-07-29T00:56:23;1.38;;;1.27;;
70997;SDS011;58663;52.040;4.634;2022-07-29T00:58:48;4.78;;;1.30;;
70997;SDS011;58663;52.040;4.634;2022-07-29T01:01:15;2.53;;;1.30;;
70997;SDS011;58663;52.040;4.634;2022-07-29T01:03:41;4.43;;;1.50;;
70997;SDS011;58663;52.040;4.634;2022-07-29T01:06:06;2.97;;;1.23;;
70997;SDS011;58663;52.040;4.634;2022-07-29T01:08:32;3.22;;;1.17;;
70997;SDS011;58663;52.040;4.634;2022-07-29T01:10:58;3.05;;;1.40;;
70997;SDS011;58663;52.040;4.634;2022-07-29T01:13:24;3.88;;;1.30;;
70997;SDS011;58663;52.040;4.634;2022-07-29T01:15:51;2.20;;;1.20;;
70997;SDS011;58663;52.040;4.634;2022-07-29T01:18:22;2.40;;;1.25;;
70997;SDS011;58663;52.040;4.634;2022-07-29T01:31:31;2.50;;;1.60;;
70997;SDS011;58663;52.040;4.634;2022-07-29T01:34:02;2.03;;;1.20;;
70997;SDS011;58663;52.040;4.634;2022-07-29T01:36:37;4.45;;;1.55;;
70997;SDS011;58663;52.040;4.634;2022-07-29T01:39:12;3.15;;;1.75;;
70997;SDS011;58663;52.040;4.634;2022-07-29T01:42:19;2.78;;;1.50;;
70997;SDS011;58663;52.040;4.634;2022-07-29T01:44:59;4.18;;;1.50;;
70997;SDS011;58663;52.040;4.634;2022-07-29T01:47:28;1.50;;;1.25;;
70997;SDS011;58663;52.040;4.634;2022-07-29T01:50:03;2.75;;;1.50;;
70997;SDS011;58663;52.040;4.634;2022-07-29T01:52:46;3.40;;;1.87;;
70997;SDS011;58663;52.040;4.634;2022-07-29T01:55:15;3.90;;;1.25;;
70997;SDS011;58663;52.040;4.634;2022-07-29T01:57:45;2.53;;;1.30;;
70997;SDS011;58663;52.040;4.634;2022-07-29T02:00:14;4.25;;;1.23;;
70997;SDS011;58663;52.040;4.634;2022-07-29T02:02:41;2.15;;;1.40;;
70997;SDS011;58663;52.040;4.634;2022-07-29T02:05:08;4.95;;;1.60;;
70997;SDS011;58663;52.040;4.634;2022-07-29T02:07:36;5.22;;;1.55;;
70997;SDS011;58663;52.040;4.634;2022-07-29T02:10:02;4.20;;;1.42;;
70997;SDS011;58663;52.040;4.634;2022-07-29T02:12:28;2.47;;;1.40;;
70997;SDS011;58663;52.040;4.634;2022-07-29T02:14:54;3.00;;;1.48;;
70997;SDS011;58663;52.040;4.634;2022-07-29T02:17:26;3.45;;;1.42;;
70997;SDS011;58663;52.040;4.634;2022-07-29T02:19:56;2.80;;;1.58;;
70997;SDS011;58663;52.040;4.634;2022-07-29T02:22:22;2.20;;;1.52;;
70997;SDS011;58663;52.040;4.634;2022-07-29T02:24:49;2.92;;;1.50;;
70997;SDS011;58663;52.040;4.634;2022-07-29T02:27:16;3.88;;;1.40;;
70997;SDS011;58663;52.040;4.634;2022-07-29T02:29:43;3.35;;;1.40;;
70997;SDS011;58663;52.040;4.634;2022-07-29T02:32:10;2.17;;;1.52;;
70997;SDS011;58663;52.040;4.634;2022-07-29T02:34:37;3.95;;;1.52;;
70997;SDS011;58663;52.040;4.634;2022-07-29T02:37:03;2.05;;;1.38;;
70997;SDS011;58663;52.040;4.634;2022-07-29T02:39:28;3.13;;;1.70;;
70997;SDS011;58663;52.040;4.634;2022-07-29T02:41:59;1.98;;;1.48;;
70997;SDS011;58663;52.040;4.634;2022-07-29T02:44:27;2.80;;;1.45;;
70997;SDS011;58663;52.040;4.634;2022-07-29T02:49:35;1.80;;;1.50;;
70997;SDS011;58663;52.040;4.634;2022-07-29T02:52:03;6.25;;;2.25;;
70997;SDS011;58663;52.040;4.634;2022-07-29T02:54:42;1.77;;;1.42;;
70997;SDS011;58663;52.040;4.634;2022-07-29T02:57:14;2.70;;;1.75;;
70997;SDS011;58663;52.040;4.634;2022-07-29T03:00:06;2.85;;;1.50;;
70997;SDS011;58663;52.040;4.634;2022-07-29T03:02:34;3.08;;;1.42;;
70997;SDS011;58663;52.040;4.634;2022-07-29T03:05:02;2.05;;;1.63;;
70997;SDS011;58663;52.040;4.634;2022-07-29T03:07:28;5.18;;;1.70;;
70997;SDS011;58663;52.040;4.634;2022-07-29T03:09:54;1.73;;;1.60;;
70997;SDS011;58663;52.040;4.634;2022-07-29T03:12:21;2.40;;;1.70;;
70997;SDS011;58663;52.040;4.634;2022-07-29T03:14:47;2.58;;;1.58;;
70997;SDS011;58663;52.040;4.634;2022-07-29T03:17:13;2.78;;;1.60;;
70997;SDS011;58663;52.040;4.634;2022-07-29T03:19:39;7.03;;;1.90;;
70997;SDS011;58663;52.040;4.634;2022-07-29T03:22:04;5.35;;;1.83;;
70997;SDS011;58663;52.040;4.634;2022-07-29T03:24:34;2.45;;;2.05;;
70997;SDS011;58663;52.040;4.634;2022-07-29T03:27:01;8.48;;;1.80;;
70997;SDS011;58663;52.040;4.634;2022-07-29T03:29:27;2.75;;;1.70;;
70997;SDS011;58663;52.040;4.634;2022-07-29T03:31:53;3.38;;;1.98;;
70997;SDS011;58663;52.040;4.634;2022-07-29T03:34:19;4.50;;;1.70;;
70997;SDS011;58663;52.040;4.634;2022-07-29T03:36:44;2.10;;;1.90;;
70997;SDS011;58663;52.040;4.634;2022-07-29T03:39:10;2.10;;;1.90;;
70997;SDS011;58663;52.040;4.634;2022-07-29T03:41:38;2.55;;;2.05;;
70997;SDS011;58663;52.040;4.634;2022-07-29T03:44:05;4.20;;;2.30;;
70997;SDS011;58663;52.040;4.634;2022-07-29T03:46:31;5.90;;;2.22;;
70997;SDS011;58663;52.040;4.634;2022-07-29T03:48:58;2.38;;;2.00;;
70997;SDS011;58663;52.040;4.634;2022-07-29T03:51:25;3.83;;;2.20;;
70997;SDS011;58663;52.040;4.634;2022-07-29T03:53:51;2.88;;;2.00;;
70997;SDS011;58663;52.040;4.634;2022-07-29T03:56:16;2.88;;;1.83;;
70997;SDS011;58663;52.040;4.634;2022-07-29T03:58:46;8.57;;;2.20;;
70997;SDS011;58663;52.040;4.634;2022-07-29T04:01:12;3.97;;;2.30;;
70997;SDS011;58663;52.040;4.634;2022-07-29T04:03:38;3.50;;;2.35;;
70997;SDS011;58663;52.040;4.634;2022-07-29T04:06:04;3.17;;;1.75;;
70997;SDS011;58663;52.040;4.634;2022-07-29T04:08:31;2.67;;;2.10;;
70997;SDS011;58663;52.040;4.634;2022-07-29T04:10:58;2.22;;;1.92;;
70997;SDS011;58663;52.040;4.634;2022-07-29T04:13:23;3.63;;;2.60;;
70997;SDS011;58663;52.040;4.634;2022-07-29T04:15:49;2.55;;;2.00;;
70997;SDS011;58663;52.040;4.634;2022-07-29T04:18:15;5.00;;;2.30;;
70997;SDS011;58663;52.040;4.634;2022-07-29T04:20:40;3.08;;;2.22;;
70997;SDS011;58663;52.040;4.634;2022-07-29T04:23:05;6.00;;;2.15;;
70997;SDS011;58663;52.040;4.634;2022-07-29T04:25:31;5.05;;;2.00;;
70997;SDS011;58663;52.040;4.634;2022-07-29T04:27:56;3.08;;;2.08;;
70997;SDS011;58663;52.040;4.634;2022-07-29T04:30:25;2.35;;;2.00;;
70997;SDS011;58663;52.040;4.634;2022-07-29T04:32:50;3.22;;;1.75;;
70997;SDS011;58663;52.040;4.634;2022-07-29T04:35:16;3.60;;;2.25;;
70997;SDS011;58663;52.040;4.634;2022-07-29T04:37:41;2.42;;;2.20;;
70997;SDS011;58663;52.040;4.634;2022-07-29T04:40:07;2.72;;;2.10;;
70997;SDS011;58663;52.040;4.634;2022-07-29T04:42:33;4.90;;;2.55;;
70997;SDS011;58663;52.040;4.634;2022-07-29T04:44:58;4.35;;;2.45;;
70997;SDS011;58663;52.040;4.634;2022-07-29T04:47:24;3.13;;;2.20;;
70997;SDS011;58663;52.040;4.634;2022-07-29T04:49:49;2.53;;;1.92;;
70997;SDS011;58663;52.040;4.634;2022-07-29T04:52:14;4.38;;;2.33;;
70997;SDS011;58663;52.040;4.634;2022-07-29T04:54:40;2.25;;;1.75;;
70997;SDS011;58663;52.040;4.634;2022-07-29T04:57:05;5.55;;;2.20;;
70997;SDS011;58663;52.040;4.634;2022-07-29T04:59:31;4.18;;;2.20;;
70997;SDS011;58663;52.040;4.634;2022-07-29T05:01:56;3.42;;;2.10;;
70997;SDS011;58663;52.040;4.634;2022-07-29T05:04:22;3.22;;;2.20;;
70997;SDS011;58663;52.040;4.634;2022-07-29T05:06:48;3.75;;;1.88;;
70997;SDS011;58663;52.040;4.634;2022-07-29T05:09:13;2.83;;;1.88;;
70997;SDS011;58663;52.040;4.634;2022-07-29T05:11:39;4.85;;;2.25;;
70997;SDS011;58663;52.040;4.634;2022-07-29T05:14:04;5.68;;;2.22;;
70997;SDS011;58663;52.040;4.634;2022-07-29T05:16:30;2.58;;;1.80;;
70997;SDS011;58663;52.040;4.634;2022-07-29T05:18:55;2.72;;;2.00;;
70997;SDS011;58663;52.040;4.634;2022-07-29T05:21:20;6.57;;;1.60;;
70997;SDS011;58663;52.040;4.634;2022-07-29T05:23:46;4.03;;;2.10;;
70997;SDS011;58663;52.040;4.634;2022-07-29T05:26:11;7.32;;;2.05;;
70997;SDS011;58663;52.040;4.634;2022-07-29T05:28:37;3.45;;;2.00;;
70997;SDS011;58663;52.040;4.634;2022-07-29T05:31:02;4.15;;;2.15;;
70997;SDS011;58663;52.040;4.634;2022-07-29T05:33:28;3.80;;;1.80;;
70997;SDS011;58663;52.040;4.634;2022-07-29T05:35:53;2.30;;;2.10;;
70997;SDS011;58663;52.040;4.634;2022-07-29T05:38:19;2.17;;;1.63;;
70997;SDS011;58663;52.040;4.634;2022-07-29T05:40:44;4.72;;;2.10;;
70997;SDS011;58663;52.040;4.634;2022-07-29T05:43:10;3.55;;;2.00;;
70997;SDS011;58663;52.040;4.634;2022-07-29T05:45:35;4.13;;;2.00;;
70997;SDS011;58663;52.040;4.634;2022-07-29T05:48:00;3.22;;;2.28;;
70997;SDS011;58663;52.040;4.634;2022-07-29T05:50:26;2.67;;;1.88;;
70997;SDS011;58663;52.040;4.634;2022-07-29T05:52:51;3.20;;;1.83;;
70997;SDS011;58663;52.040;4.634;2022-07-29T05:55:17;4.30;;;2.05;;
70997;SDS011;58663;52.040;4.634;2022-07-29T05:57:42;8.18;;;2.08;;
70997;SDS011;58663;52.040;4.634;2022-07-29T06:00:09;3.47;;;1.75;;
70997;SDS011;58663;52.040;4.634;2022-07-29T06:02:35;3.00;;;1.60;;
70997;SDS011;58663;52.040;4.634;2022-07-29T06:05:01;3.83;;;1.95;;
70997;SDS011;58663;52.040;4.634;2022-07-29T06:07:26;2.95;;;1.70;;
70997;SDS011;58663;52.040;4.634;2022-07-29T06:09:51;3.08;;;1.90;;
70997;SDS011;58663;52.040;4.634;2022-07-29T06:12:17;2.45;;;1.70;;
70997;SDS011;58663;52.040;4.634;2022-07-29T06:14:43;6.05;;;1.70;;
70997;SDS011;58663;52.040;4.634;2022-07-29T06:17:08;3.22;;;2.08;;
70997;SDS011;58663;52.040;4.634;2022-07-29T06:19:34;3.63;;;1.70;;
70997;SDS011;58663;52.040;4.634;2022-07-29T06:22:00;3.45;;;1.92;;
70997;SDS011;58663;52.040;4.634;2022-07-29T06:24:25;1.77;;;1.48;;
70997;SDS011;58663;52.040;4.634;2022-07-29T06:26:51;4.25;;;1.70;;
70997;SDS011;58663;52.040;4.634;2022-07-29T06:29:16;1.88;;;1.52;;
70997;SDS011;58663;52.040;4.634;2022-07-29T06:31:42;5.38;;;1.60;;
70997;SDS011;58663;52.040;4.634;2022-07-29T06:34:07;4.07;;;1.60;;
70997;SDS011;58663;52.040;4.634;2022-07-29T06:36:36;3.15;;;1.95;;
70997;SDS011;58663;52.040;4.634;2022-07-29T06:39:08;4.87;;;1.93;;
70997;SDS011;58663;52.040;4.634;2022-07-29T06:41:34;1.73;;;1.48;;
70997;SDS011;58663;52.040;4.634;2022-07-29T06:43:59;3.45;;;1.50;;
70997;SDS011;58663;52.040;4.634;2022-07-29T06:46:25;3.15;;;1.63;;
70997;SDS011;58663;52.040;4.634;2022-07-29T06:48:50;4.05;;;1.83;;
70997;SDS011;58663;52.040;4.634;2022-07-29T06:51:17;2.58;;;1.70;;
70997;SDS011;58663;52.040;4.634;2022-07-29T06:53:42;4.13;;;2.05;;
70997;SDS011;58663;52.040;4.634;2022-07-29T06:56:08;3.78;;;1.55;;
70997;SDS011;58663;52.040;4.634;2022-07-29T06:58:35;2.65;;;1.83;;
70997;SDS011;58663;52.040;4.634;2022-07-29T07:01:01;2.20;;;1.60;;
70997;SDS011;58663;52.040;4.634;2022-07-29T07:03:28;2.08;;;1.63;;
70997;SDS011;58663;52.040;4.634;2022-07-29T07:05:54;4.45;;;1.73;;
70997;SDS011;58663;52.040;4.634;2022-07-29T07:08:20;2.85;;;1.55;;
70997;SDS011;58663;52.040;4.634;2022-07-29T07:10:45;6.05;;;1.67;;
70997;SDS011;58663;52.040;4.634;2022-07-29T07:13:12;2.40;;;1.40;;
70997;SDS011;58663;52.040;4.634;2022-07-29T07:15:39;5.00;;;1.98;;
70997;SDS011;58663;52.040;4.634;2022-07-29T07:18:05;1.95;;;1.50;;
70997;SDS011;58663;52.040;4.634;2022-07-29T07:20:32;4.43;;;2.05;;
70997;SDS011;58663;52.040;4.634;2022-07-29T07:22:58;2.40;;;1.52;;
70997;SDS011;58663;52.040;4.634;2022-07-29T07:25:23;2.80;;;1.73;;
70997;SDS011;58663;52.040;4.634;2022-07-29T07:27:49;3.13;;;1.63;;
70997;SDS011;58663;52.040;4.634;2022-07-29T07:30:15;3.35;;;1.80;;
70997;SDS011;58663;52.040;4.634;2022-07-29T07:32:40;3.88;;;1.70;;
70997;SDS011;58663;52.040;4.634;2022-07-29T07:35:06;2.08;;;1.63;;
70997;SDS011;58663;52.040;4.634;2022-07-29T07:37:33;3.72;;;1.55;;
70997;SDS011;58663;52.040;4.634;2022-07-29T07:39:59;3.65;;;1.60;;
70997;SDS011;58663;52.040;4.634;2022-07-29T07:42:25;2.80;;;1.60;;
70997;SDS011;58663;52.040;4.634;2022-07-29T07:44:51;5.57;;;1.52;;
70997;SDS011;58663;52.040;4.634;2022-07-29T07:47:17;8.18;;;1.80;;
70997;SDS011;58663;52.040;4.634;2022-07-29T07:49:48;7.80;;;1.95;;
70997;SDS011;58663;52.040;4.634;2022-07-29T07:52:15;6.47;;;2.13;;
70997;SDS011;58663;52.040;4.634;2022-07-29T07:54:41;4.05;;;1.90;;
70997;SDS011;58663;52.040;4.634;2022-07-29T07:57:07;4.30;;;1.58;;
70997;SDS011;58663;52.040;4.634;2022-07-29T07:59:33;4.72;;;1.77;;
70997;SDS011;58663;52.040;4.634;2022-07-29T08:01:59;3.00;;;1.88;;
70997;SDS011;58663;52.040;4.634;2022-07-29T08:04:26;2.08;;;1.85;;
70997;SDS011;58663;52.040;4.634;2022-07-29T08:06:51;3.03;;;1.73;;
70997;SDS011;58663;52.040;4.634;2022-07-29T08:09:19;5.45;;;1.77;;
70997;SDS011;58663;52.040;4.634;2022-07-29T08:11:45;4.53;;;2.15;;
70997;SDS011;58663;52.040;4.634;2022-07-29T08:14:10;4.90;;;2.28;;
70997;SDS011;58663;52.040;4.634;2022-07-29T08:16:36;1.98;;;1.75;;
70997;SDS011;58663;52.040;4.634;2022-07-29T08:19:01;4.18;;;2.08;;
70997;SDS011;58663;52.040;4.634;2022-07-29T08:21:27;5.35;;;1.85;;
70997;SDS011;58663;52.040;4.634;2022-07-29T08:23:52;1.73;;;1.63;;
70997;SDS011;58663;52.040;4.634;2022-07-29T08:26:18;4.20;;;1.60;;
70997;SDS011;58663;52.040;4.634;2022-07-29T08:28:45;3.83;;;1.58;;
70997;SDS011;58663;52.040;4.634;2022-07-29T08:31:14;2.60;;;1.52;;
70997;SDS011;58663;52.040;4.634;2022-07-29T08:33:40;4.60;;;1.92;;
70997;SDS011;58663;52.040;4.634;2022-07-29T08:36:06;2.90;;;1.80;;
70997;SDS011;58663;52.040;4.634;2022-07-29T08:38:32;3.60;;;1.75;;
70997;SDS011;58663;52.040;4.634;2022-07-29T08:40:58;7.00;;;1.70;;
70997;SDS011;58663;52.040;4.634;2022-07-29T08:43:25;3.05;;;2.10;;
70997;SDS011;58663;52.040;4.634;2022-07-29T08:45:51;3.28;;;1.88;;
70997;SDS011;58663;52.040;4.634;2022-07-29T08:48:21;3.65;;;1.85;;
70997;SDS011;58663;52.040;4.634;2022-07-29T08:50:49;2.90;;;1.80;;
70997;SDS011;58663;52.040;4.634;2022-07-29T08:53:17;2.35;;;1.88;;
70997;SDS011;58663;52.040;4.634;2022-07-29T08:55:44;5.07;;;1.83;;
70997;SDS011;58663;52.040;4.634;2022-07-29T08:58:11;3.42;;;2.00;;
70997;SDS011;58663;52.040;4.634;2022-07-29T09:00:38;2.65;;;1.52;;
70997;SDS011;58663;52.040;4.634;2022-07-29T09:03:08;3.95;;;1.92;;
70997;SDS011;58663;52.040;4.634;2022-07-29T09:05:34;3.45;;;1.83;;
70997;SDS011;58663;52.040;4.634;2022-07-29T09:08:00;4.65;;;2.00;;
70997;SDS011;58663;52.040;4.634;2022-07-29T09:10:26;2.55;;;1.77;;
70997;SDS011;58663;52.040;4.634;2022-07-29T09:12:51;3.78;;;2.00;;
70997;SDS011;58663;52.040;4.634;2022-07-29T09:15:17;4.72;;;2.30;;
70997;SDS011;58663;52.040;4.634;2022-07-29T09:20:15;3.28;;;1.90;;
70997;SDS011;58663;52.040;4.634;2022-07-29T09:22:42;3.88;;;1.83;;
70997;SDS011;58663;52.040;4.634;2022-07-29T09:25:08;3.25;;;1.50;;
70997;SDS011;58663;52.040;4.634;2022-07-29T09:27:33;8.45;;;2.30;;
70997;SDS011;58663;52.040;4.634;2022-07-29T09:30:00;3.83;;;2.00;;
70997;SDS011;58663;52.040;4.634;2022-07-29T09:32:32;4.05;;;1.60;;
70997;SDS011;58663;52.040;4.634;2022-07-29T09:35:14;3.03;;;1.63;;
70997;SDS011;58663;52.040;4.634;2022-07-29T09:37:40;5.10;;;1.80;;
70997;SDS011;58663;52.040;4.634;2022-07-29T09:40:39;4.25;;;2.08;;
70997;SDS011;58663;52.040;4.634;2022-07-29T09:42:57;3.45;;;2.17;;
70997;SDS011;58663;52.040;4.634;2022-07-29T09:45:33;7.93;;;2.35;;
70997;SDS011;58663;52.040;4.634;2022-07-29T09:47:59;6.05;;;2.75;;
70997;SDS011;58663;52.040;4.634;2022-07-29T09:50:39;5.33;;;2.00;;
70997;SDS011;58663;52.040;4.634;2022-07-29T09:53:05;3.47;;;2.13;;
70997;SDS011;58663;52.040;4.634;2022-07-29T09:55:31;3.13;;;1.60;;
70997;SDS011;58663;52.040;4.634;2022-07-29T09:58:19;4.43;;;1.85;;
70997;SDS011;58663;52.040;4.634;2022-07-29T10:00:46;3.55;;;1.83;;
70997;SDS011;58663;52.040;4.634;2022-07-29T10:03:13;3.38;;;1.60;;
70997;SDS011;58663;52.040;4.634;2022-07-29T10:05:39;3.03;;;2.55;;
70997;SDS011;58663;52.040;4.634;2022-07-29T10:08:05;5.75;;;1.70;;
70997;SDS011;58663;52.040;4.634;2022-07-29T10:10:36;3.10;;;1.50;;
70997;SDS011;58663;52.040;4.634;2022-07-29T10:13:08;3.50;;;2.00;;
70997;SDS011;58663;52.040;4.634;2022-07-29T10:15:36;4.75;;;1.50;;
70997;SDS011;58663;52.040;4.634;2022-07-29T10:18:04;2.80;;;1.60;;
70997;SDS011;58663;52.040;4.634;2022-07-29T10:20:30;4.40;;;1.80;;
70997;SDS011;58663;52.040;4.634;2022-07-29T10:22:55;4.85;;;1.70;;
70997;SDS011;58663;52.040;4.634;2022-07-29T10:25:21;8.93;;;2.00;;
70997;SDS011;58663;52.040;4.634;2022-07-29T10:27:48;3.58;;;1.60;;
70997;SDS011;58663;52.040;4.634;2022-07-29T10:30:16;5.20;;;1.92;;
70997;SDS011;58663;52.040;4.634;2022-07-29T10:43:58;4.03;;;1.63;;
70997;SDS011;58663;52.040;4.634;2022-07-29T10:46:26;4.22;;;1.77;;
70997;SDS011;58663;52.040;4.634;2022-07-29T10:49:08;5.03;;;1.73;;
70997;SDS011;58663;52.040;4.634;2022-07-29T10:54:41;3.30;;;1.63;;
70997;SDS011;58663;52.040;4.634;2022-07-29T10:57:27;3.95;;;1.60;;
70997;SDS011;58663;52.040;4.634;2022-07-29T11:07:31;6.53;;;1.65;;
70997;SDS011;58663;52.040;4.634;2022-07-29T11:15:02;4.38;;;1.65;;
70997;SDS011;58663;52.040;4.634;2022-07-29T11:18:18;2.40;;;1.40;;
70997;SDS011;58663;52.040;4.634;2022-07-29T11:31:16;2.47;;;1.90;;
70997;SDS011;58663;52.040;4.634;2022-07-29T11:33:44;5.53;;;1.60;;
70997;SDS011;58663;52.040;4.634;2022-07-29T11:36:10;3.65;;;1.58;;
70997;SDS011;58663;52.040;4.634;2022-07-29T11:38:37;3.10;;;1.60;;
70997;SDS011;58663;52.040;4.634;2022-07-29T11:41:21;6.00;;;1.55;;
70997;SDS011;58663;52.040;4.634;2022-07-29T11:51:53;2.70;;;1.73;;
70997;SDS011;58663;52.040;4.634;2022-07-29T11:54:32;4.82;;;1.83;;
70997;SDS011;58663;52.040;4.634;2022-07-29T11:56:59;5.63;;;1.92;;
70997;SDS011;58663;52.040;4.634;2022-07-29T11:59:25;4.50;;;1.90;;
70997;SDS011;58663;52.040;4.634;2022-07-29T12:04:23;3.65;;;1.80;;
70997;SDS011;58663;52.040;4.634;2022-07-29T12:06:52;4.35;;;1.42;;
70997;SDS011;58663;52.040;4.634;2022-07-29T12:09:19;4.78;;;1.60;;
70997;SDS011;58663;52.040;4.634;2022-07-29T12:11:45;7.80;;;1.55;;
70997;SDS011;58663;52.040;4.634;2022-07-29T12:14:30;1.40;;;0.90;;
70997;SDS011;58663;52.040;4.634;2022-07-29T12:16:57;2.83;;;1.40;;
70997;SDS011;58663;52.040;4.634;2022-07-29T12:19:23;4.78;;;1.10;;
70997;SDS011;58663;52.040;4.634;2022-07-29T12:21:49;6.25;;;1.45;;
70997;SDS011;58663;52.040;4.634;2022-07-29T12:24:16;3.38;;;1.27;;
70997;SDS011;58663;52.040;4.634;2022-07-29T12:26:48;5.30;;;1.50;;
70997;SDS011;58663;52.040;4.634;2022-07-29T12:29:18;3.08;;;1.27;;
70997;SDS011;58663;52.040;4.634;2022-07-29T12:31:44;2.80;;;1.17;;
70997;SDS011;58663;52.040;4.634;2022-07-29T12:34:10;2.65;;;1.20;;
70997;SDS011;58663;52.040;4.634;2022-07-29T12:36:37;2.80;;;1.60;;
70997;SDS011;58663;52.040;4.634;2022-07-29T12:39:02;2.15;;;1.90;;
70997;SDS011;58663;52.040;4.634;2022-07-29T12:41:29;2.50;;;2.00;;
70997;SDS011;58663;52.040;4.634;2022-07-29T12:43:55;2.78;;;2.08;;
70997;SDS011;58663;52.040;4.634;2022-07-29T12:46:21;7.57;;;2.33;;
70997;SDS011;58663;52.040;4.634;2022-07-29T12:48:49;6.32;;;2.50;;
70997;SDS011;58663;52.040;4.634;2022-07-29T12:51:25;4.80;;;2.35;;
70997;SDS011;58663;52.040;4.634;2022-07-29T12:54:07;5.65;;;2.10;;
70997;SDS011;58663;52.040;4.634;2022-07-29T12:56:33;3.78;;;2.08;;
70997;SDS011;58663;52.040;4.634;2022-07-29T12:58:58;3.97;;;2.45;;
70997;SDS011;58663;52.040;4.634;2022-07-29T13:01:24;4.70;;;2.20;;
70997;SDS011;58663;52.040;4.634;2022-07-29T13:03:56;5.18;;;1.83;;
70997;SDS011;58663;52.040;4.634;2022-07-29T13:06:42;2.92;;;1.60;;
70997;SDS011;58663;52.040;4.634;2022-07-29T13:14:09;2.42;;;1.77;;
70997;SDS011;58663;52.040;4.634;2022-07-29T13:16:36;3.67;;;2.10;;
70997;SDS011;58663;52.040;4.634;2022-07-29T13:19:07;4.95;;;1.95;;
70997;SDS011;58663;52.040;4.634;2022-07-29T13:21:35;5.00;;;2.08;;
70997;SDS011;58663;52.040;4.634;2022-07-29T13:24:01;4.72;;;1.85;;
70997;SDS011;58663;52.040;4.634;2022-07-29T13:26:27;4.60;;;1.90;;
70997;SDS011;58663;52.040;4.634;2022-07-29T13:28:53;4.80;;;2.20;;
70997;SDS011;58663;52.040;4.634;2022-07-29T13:31:19;4.95;;;2.10;;
70997;SDS011;58663;52.040;4.634;2022-07-29T13:33:45;3.78;;;1.90;;
70997;SDS011;58663;52.040;4.634;2022-07-29T13:36:10;3.63;;;1.88;;
70997;SDS011;58663;52.040;4.634;2022-07-29T13:38:35;2.88;;;1.80;;
70997;SDS011;58663;52.040;4.634;2022-07-29T13:41:01;2.85;;;1.80;;
70997;SDS011;58663;52.040;4.634;2022-07-29T13:43:26;4.10;;;1.80;;
70997;SDS011;58663;52.040;4.634;2022-07-29T13:45:52;9.98;;;1.60;;
70997;SDS011;58663;52.040;4.634;2022-07-29T13:48:17;5.22;;;1.75;;
70997;SDS011;58663;52.040;4.634;2022-07-29T13:50:43;3.67;;;1.55;;
70997;SDS011;58663;52.040;4.634;2022-07-29T13:53:08;2.58;;;1.60;;
70997;SDS011;58663;52.040;4.634;2022-07-29T13:55:34;2.65;;;1.30;;
70997;SDS011;58663;52.040;4.634;2022-07-29T13:57:59;2.65;;;1.35;;
70997;SDS011;58663;52.040;4.634;2022-07-29T14:00:25;6.10;;;1.63;;
70997;SDS011;58663;52.040;4.634;2022-07-29T14:02:51;3.65;;;1.55;;
70997;SDS011;58663;52.040;4.634;2022-07-29T14:05:17;2.33;;;1.50;;
70997;SDS011;58663;52.040;4.634;2022-07-29T14:07:42;5.32;;;1.70;;
70997;SDS011;58663;52.040;4.634;2022-07-29T14:10:08;3.28;;;1.40;;
70997;SDS011;58663;52.040;4.634;2022-07-29T14:12:33;2.95;;;1.85;;
70997;SDS011;58663;52.040;4.634;2022-07-29T14:14:59;6.85;;;1.75;;
70997;SDS011;58663;52.040;4.634;2022-07-29T14:17:25;2.40;;;1.75;;
70997;SDS011;58663;52.040;4.634;2022-07-29T14:19:50;2.75;;;1.55;;
70997;SDS011;58663;52.040;4.634;2022-07-29T14:22:15;6.95;;;1.90;;
70997;SDS011;58663;52.040;4.634;2022-07-29T14:24:43;3.40;;;2.20;;
70997;SDS011;58663;52.040;4.634;2022-07-29T14:27:09;3.42;;;1.48;;
70997;SDS011;58663;52.040;4.634;2022-07-29T14:29:35;4.93;;;1.75;;
70997;SDS011;58663;52.040;4.634;2022-07-29T14:32:00;4.55;;;1.58;;
70997;SDS011;58663;52.040;4.634;2022-07-29T14:34:26;5.07;;;1.30;;
70997;SDS011;58663;52.040;4.634;2022-07-29T14:36:51;2.55;;;1.10;;
70997;SDS011;58663;52.040;4.634;2022-07-29T14:39:22;4.10;;;1.67;;
70997;SDS011;58663;52.040;4.634;2022-07-29T14:41:50;6.20;;;1.40;;
70997;SDS011;58663;52.040;4.634;2022-07-29T14:44:16;8.10;;;1.50;;
70997;SDS011;58663;52.040;4.634;2022-07-29T14:46:42;3.33;;;1.70;;
70997;SDS011;58663;52.040;4.634;2022-07-29T14:49:08;4.63;;;1.55;;
70997;SDS011;58663;52.040;4.634;2022-07-29T14:51:33;5.22;;;1.80;;
70997;SDS011;58663;52.040;4.634;2022-07-29T14:53:59;2.83;;;1.42;;
70997;SDS011;58663;52.040;4.634;2022-07-29T14:56:24;4.65;;;1.80;;
70997;SDS011;58663;52.040;4.634;2022-07-29T14:58:50;3.63;;;1.40;;
70997;SDS011;58663;52.040;4.634;2022-07-29T15:01:15;2.42;;;1.23;;
70997;SDS011;58663;52.040;4.634;2022-07-29T15:03:40;4.28;;;1.60;;
70997;SDS011;58663;52.040;4.634;2022-07-29T15:06:06;2.30;;;1.20;;
70997;SDS011;58663;52.040;4.634;2022-07-29T15:08:31;4.72;;;1.42;;
70997;SDS011;58663;52.040;4.634;2022-07-29T15:10:57;2.30;;;1.25;;
70997;SDS011;58663;52.040;4.634;2022-07-29T15:13:24;3.15;;;1.30;;
70997;SDS011;58663;52.040;4.634;2022-07-29T15:15:50;5.50;;;1.27;;
70997;SDS011;58663;52.040;4.634;2022-07-29T15:18:15;3.28;;;1.23;;
70997;SDS011;58663;52.040;4.634;2022-07-29T15:20:41;1.98;;;1.20;;
70997;SDS011;58663;52.040;4.634;2022-07-29T15:23:06;2.97;;;1.40;;
70997;SDS011;58663;52.040;4.634;2022-07-29T15:25:34;6.88;;;1.40;;
70997;SDS011;58663;52.040;4.634;2022-07-29T15:28:01;1.88;;;1.02;;
70997;SDS011;58663;52.040;4.634;2022-07-29T15:30:32;1.95;;;1.20;;
70997;SDS011;58663;52.040;4.634;2022-07-29T15:32:58;1.48;;;1.35;;
70997;SDS011;58663;52.040;4.634;2022-07-29T15:35:24;3.17;;;1.20;;
70997;SDS011;58663;52.040;4.634;2022-07-29T15:37:49;5.70;;;1.35;;
70997;SDS011;58663;52.040;4.634;2022-07-29T15:40:15;5.40;;;1.52;;
70997;SDS011;58663;52.040;4.634;2022-07-29T15:42:40;2.80;;;1.13;;
70997;SDS011;58663;52.040;4.634;2022-07-29T15:45:06;1.90;;;1.13;;
70997;SDS011;58663;52.040;4.634;2022-07-29T15:47:32;4.20;;;1.20;;
70997;SDS011;58663;52.040;4.634;2022-07-29T15:50:00;5.05;;;1.10;;
70997;SDS011;58663;52.040;4.634;2022-07-29T15:52:25;4.53;;;1.60;;
70997;SDS011;58663;52.040;4.634;2022-07-29T15:54:52;3.38;;;1.30;;
70997;SDS011;58663;52.040;4.634;2022-07-29T15:57:19;3.17;;;1.20;;